Time;durP1;ratioP1;P1;durP2;ratioP2;P2;SDS_P1;SDS_P2;PMS_P1;PMS_P2;Temp;Humidity;BMP_temperature;BMP_pressure;BME280_temperature;BME280_humidity;BME280_pressure;Samples;Min_cycle;Max_cycle;Signal;HPM_P1;HPM_P2
2021/12/13 00:00:21;;;;;;;7.18;1.17;;;;;;;15.97;71.77;101310.31;5088239;28;20395;-68
2021/12/13 00:03:01;;;;;;;6.63;1.45;;;;;;;15.91;72.59;101305.88;5089910;28;20403;-68
2021/12/13 00:05:36;;;;;;;3.95;0.60;;;;;;;15.86;72.86;101299.63;5088011;28;20123;-68
2021/12/13 00:08:09;;;;;;;7.93;1.00;;;;;;;15.81;73.22;101297.84;5090095;28;20387;-68
2021/12/13 00:10:43;;;;;;;2.05;0.45;;;;;;;15.77;73.49;101302.25;5090218;28;20048;-68
2021/12/13 00:13:15;;;;;;;8.52;0.85;;;;;;;15.74;73.65;101290.72;5089543;28;20123;-68
2021/12/13 00:15:50;;;;;;;11.15;1.48;;;;;;;15.71;73.89;101282.72;5089610;28;20040;-68
2021/12/13 00:18:23;;;;;;;6.00;0.95;;;;;;;15.64;74.20;101279.16;5088706;28;20096;-69
2021/12/13 00:20:59;;;;;;;8.95;1.13;;;;;;;15.59;74.46;101286.25;5071591;28;20032;-69
2021/12/13 00:23:31;;;;;;;5.40;0.88;;;;;;;15.51;75.00;101280.84;5105245;28;20047;-68
2021/12/13 00:26:02;;;;;;;10.52;1.38;;;;;;;15.41;75.37;101283.47;5091560;28;20127;-68
2021/12/13 00:28:35;;;;;;;5.78;1.00;;;;;;;15.32;75.75;101281.66;5092806;28;20036;-68
2021/12/13 00:31:18;;;;;;;7.57;1.08;;;;;;;15.23;76.11;101278.09;5094673;28;20049;-68
2021/12/13 00:33:58;;;;;;;4.97;1.02;;;;;;;15.14;76.28;101279.81;5090721;28;20044;-70
2021/12/13 00:36:33;;;;;;;4.55;0.60;;;;;;;15.07;76.45;101279.75;5091923;28;20555;-69
2021/12/13 00:39:04;;;;;;;;;;;;;;;15.01;76.49;101277.06;5093006;28;20127;-69
2021/12/13 00:41:32;;;;;;;11.07;1.40;;;;;;;14.96;76.23;101281.47;5074723;28;19995;-68
2021/12/13 00:44:04;;;;;;;1.95;0.28;;;;;;;14.88;76.60;101276.13;5092757;28;20036;-68
2021/12/13 00:46:33;;;;;;;7.05;0.60;;;;;;;14.84;76.99;101271.63;5102585;28;20396;-68
2021/12/13 00:49:06;;;;;;;4.30;0.73;;;;;;;14.83;76.95;101271.66;5073416;28;20527;-68
2021/12/13 00:51:38;;;;;;;7.70;1.30;;;;;;;14.81;77.17;101268.09;5098071;28;20124;-68
2021/12/13 00:54:15;;;;;;;8.80;1.02;;;;;;;14.82;76.97;101267.22;5092725;28;20090;-68
2021/12/13 00:56:52;;;;;;;8.65;1.42;;;;;;;14.80;77.07;101264.53;5093238;28;20518;-68
2021/12/13 00:59:27;;;;;;;8.30;0.93;;;;;;;14.77;77.31;101264.50;5092789;28;20044;-68
2021/12/13 01:02:00;;;;;;;3.97;0.80;;;;;;;14.75;77.62;101255.66;5091745;28;20040;-69
2021/12/13 01:04:49;;;;;;;4.95;0.80;;;;;;;14.69;77.64;101261.81;5093382;28;20044;-68
2021/12/13 01:08:01;;;;;;;5.68;0.90;;;;;;;14.62;77.77;101264.41;5091961;28;20098;-70
2021/12/13 01:11:03;;;;;;;7.30;1.15;;;;;;;14.59;77.85;101254.66;5092362;28;20040;-68
2021/12/13 01:13:35;;;;;;;8.55;1.40;;;;;;;14.59;77.77;101264.38;5093049;28;20109;-69
2021/12/13 01:16:15;;;;;;;3.58;1.08;;;;;;;14.53;77.80;101253.72;5092314;28;20036;-69
2021/12/13 01:21:39;;;;;;;10.82;0.98;;;;;;;14.35;78.06;101263.28;5087311;28;20122;-69
2021/12/13 01:24:15;;;;;;;9.48;0.85;;;;;;;14.32;78.24;101271.22;5092771;28;20143;-69
2021/12/13 01:26:47;;;;;;;7.85;0.90;;;;;;;14.29;78.44;101265.91;5097947;28;20048;-69
2021/12/13 01:29:17;;;;;;;5.20;0.65;;;;;;;14.25;78.35;101264.09;5107743;28;20086;-69
2021/12/13 01:31:48;;;;;;;8.15;1.00;;;;;;;14.26;78.59;101263.22;5090334;28;20395;-69
2021/12/13 01:34:18;;;;;;;8.55;0.88;;;;;;;14.25;78.61;101264.09;5091239;28;20423;-69
2021/12/13 01:36:56;;;;;;;9.15;1.30;;;;;;;14.28;78.65;101264.13;5091158;28;20123;-69
2021/12/13 01:39:29;;;;;;;6.78;1.05;;;;;;;14.34;78.26;101269.47;5107019;28;20051;-69
2021/12/13 01:42:01;;;;;;;5.30;0.98;;;;;;;14.38;77.72;101278.38;5092588;28;20068;-69
2021/12/13 01:44:33;;;;;;;4.70;0.95;;;;;;;14.42;77.48;101280.22;5091174;28;20040;-69
2021/12/13 01:47:10;;;;;;;4.40;0.68;;;;;;;14.45;77.33;101276.66;5092638;28;20036;-69
2021/12/13 01:49:41;;;;;;;11.02;1.15;;;;;;;14.45;77.12;101276.66;5090987;28;20543;-69
2021/12/13 01:52:16;;;;;;;10.52;1.20;;;;;;;14.48;77.05;101271.41;5090467;28;20457;-69
2021/12/13 01:54:46;;;;;;;5.38;1.10;;;;;;;14.47;76.81;101281.13;5092253;28;20066;-68
2021/12/13 01:57:27;;;;;;;11.13;1.70;;;;;;;14.42;76.84;101271.34;5082803;28;20040;-68
2021/12/13 02:00:07;;;;;;;10.25;3.60;;;;;;;14.41;76.94;101274.88;5091507;28;20494;-68
2021/12/13 02:02:42;;;;;;;6.63;1.58;;;;;;;14.38;76.86;101270.41;5092017;28;20064;-68
2021/12/13 02:05:12;;;;;;;5.57;1.33;;;;;;;14.38;76.85;101266.88;5091710;28;20043;-69
2021/12/13 02:07:46;;;;;;;5.78;1.35;;;;;;;14.32;76.52;101271.22;5091894;28;20403;-68
2021/12/13 02:10:20;;;;;;;7.15;1.48;;;;;;;14.35;75.60;101268.63;5091099;28;20040;-68
2021/12/13 02:12:54;;;;;;;;;;;;;;;14.43;74.13;101254.53;5090000;28;20044;-69
2021/12/13 02:18:11;;;;;;;5.53;1.02;;;;;;;14.48;72.39;101250.13;5085501;28;20276;-68
2021/12/13 02:20:44;;;;;;;15.13;1.98;;;;;;;14.50;71.50;101243.97;5091487;28;20461;-68
2021/12/13 02:23:13;;;;;;;4.80;0.82;;;;;;;14.49;71.68;101236.88;5091463;28;20048;-68
2021/12/13 02:25:46;;;;;;;8.30;1.30;;;;;;;14.45;71.50;101234.16;5090896;28;20044;-68
2021/12/13 02:28:16;;;;;;;8.73;3.20;;;;;;;14.41;71.67;101225.28;5092150;28;20048;-68
2021/12/13 02:30:48;;;;;;;3.38;1.15;;;;;;;14.34;71.83;101218.13;5091291;28;20048;-68
2021/12/13 02:33:19;;;;;;;9.18;1.38;;;;;;;14.28;72.24;101218.09;5091019;28;20445;-68
2021/12/13 02:35:50;;;;;;;4.75;1.27;;;;;;;14.21;72.48;101225.09;5091464;28;20048;-69
2021/12/13 02:38:23;;;;;;;9.95;1.95;;;;;;;14.15;72.45;101226.81;5091256;28;20123;-69
2021/12/13 02:40:51;;;;;;;7.50;1.20;;;;;;;14.06;72.44;101216.13;5091217;28;20392;-68
2021/12/13 02:43:22;;;;;;;8.07;1.20;;;;;;;14.04;72.46;101226.75;5089904;28;20043;-68
2021/12/13 02:45:55;;;;;;;4.72;0.98;;;;;;;14.06;72.08;101230.28;5091423;28;20109;-69
2021/12/13 02:48:46;;;;;;;6.45;1.10;;;;;;;14.07;72.16;101236.47;5087334;28;20623;-68
2021/12/13 02:51:22;;;;;;;11.68;1.35;;;;;;;14.08;72.14;101233.84;5091031;28;20119;-68
2021/12/13 02:53:54;;;;;;;9.07;0.88;;;;;;;14.08;71.63;101243.56;5090187;28;20047;-68
2021/12/13 02:56:26;;;;;;;7.15;1.10;;;;;;;14.13;71.60;101242.72;5087044;28;20040;-68
2021/12/13 02:58:55;;;;;;;7.15;1.30;;;;;;;14.03;71.57;101243.53;5088610;28;20040;-68
2021/12/13 03:01:29;;;;;;;5.60;0.88;;;;;;;14.04;71.68;101240.00;5088814;28;20052;-68
2021/12/13 03:04:01;;;;;;;3.60;0.47;;;;;;;13.98;71.80;101241.72;5073679;28;20411;-68
2021/12/13 03:06:34;;;;;;;5.05;0.70;;;;;;;13.91;72.11;101235.47;5089651;28;20046;-68
2021/12/13 03:09:10;;;;;;;6.63;1.48;;;;;;;13.91;72.36;101235.47;5080109;28;20036;-68
2021/12/13 03:11:38;;;;;;;6.55;1.00;;;;;;;13.89;72.44;101237.22;5089343;28;20059;-68
2021/12/13 03:14:11;;;;;;;7.13;0.88;;;;;;;13.90;72.35;101241.66;5089061;28;20043;-68
2021/12/13 03:16:44;;;;;;;3.58;0.50;;;;;;;13.88;72.37;101240.72;5089475;28;20379;-68
2021/12/13 03:19:29;;;;;;;6.82;1.60;;;;;;;13.89;72.31;101245.16;5091545;28;20437;-68
2021/12/13 03:22:30;;;;;;;10.82;1.05;;;;;;;13.84;72.31;101249.56;5088804;28;20446;-68
2021/12/13 03:25:16;;;;;;;7.40;1.38;;;;;;;13.78;72.35;101260.09;5089792;28;20042;-68
2021/12/13 03:28:02;;;;;;;9.90;1.17;;;;;;;13.74;72.38;101258.28;5090818;28;20105;-68
2021/12/13 03:30:33;;;;;;;5.88;1.20;;;;;;;13.72;72.71;101260.03;5089115;28;20075;-68
2021/12/13 03:33:05;;;;;;;3.70;0.65;;;;;;;13.70;72.64;101261.78;5103349;28;20048;-68
2021/12/13 03:35:37;;;;;;;6.30;0.82;;;;;;;13.70;72.45;101260.03;5105115;28;20505;-68
2021/12/13 03:38:08;;;;;;;6.47;0.90;;;;;;;13.72;72.37;101265.34;5104951;28;20377;-68
2021/12/13 03:40:37;;;;;;;7.43;0.93;;;;;;;13.73;72.13;101264.44;5072670;28;20045;-68
2021/12/13 03:43:09;;;;;;;5.15;0.73;;;;;;;13.71;72.27;101263.56;5085503;28;20442;-68
2021/12/13 03:45:41;;;;;;;6.60;0.63;;;;;;;13.69;72.22;101270.59;5089823;28;20048;-68
2021/12/13 03:48:14;;;;;;;6.38;1.20;;;;;;;13.69;72.29;101266.19;5073892;28;20036;-68
2021/12/13 03:50:44;;;;;;;6.93;1.10;;;;;;;13.69;71.98;101266.19;5090670;28;20438;-68
2021/12/13 03:53:15;;;;;;;5.72;0.70;;;;;;;13.69;71.56;101271.50;5089440;28;20427;-68
2021/12/13 03:55:46;;;;;;;8.27;1.20;;;;;;;13.71;71.62;101280.38;5090643;28;20048;-68
2021/12/13 03:58:18;;;;;;;7.47;0.80;;;;;;;13.69;71.47;101274.16;5088695;28;20500;-68
2021/12/13 04:00:51;;;;;;;3.28;0.40;;;;;;;13.62;70.98;101276.72;5090298;28;20127;-68
2021/12/13 04:03:19;;;;;;;5.07;0.57;;;;;;;13.61;71.10;101266.97;5092105;28;20032;-69
2021/12/13 04:05:49;;;;;;;4.32;0.47;;;;;;;13.60;71.22;101273.16;5093496;28;20040;-68
2021/12/13 04:08:19;;;;;;;9.63;1.25;;;;;;;13.57;71.26;101274.91;5094283;28;20040;-68
2021/12/13 04:10:53;;;;;;;3.83;0.57;;;;;;;13.54;71.29;101274.88;5109302;28;20503;-68
2021/12/13 04:13:23;;;;;;;6.65;1.35;;;;;;;13.53;71.36;101273.06;5093915;28;20036;-68
2021/12/13 04:16:04;;;;;;;6.63;1.67;;;;;;;13.53;71.39;101275.72;5093821;28;20048;-68
2021/12/13 04:19:06;;;;;;;7.55;1.58;;;;;;;13.51;71.30;101277.50;5096349;28;20127;-68
2021/12/13 04:21:40;;;;;;;9.25;1.90;;;;;;;13.51;71.35;101276.59;5092287;28;20048;-68
2021/12/13 04:24:11;;;;;;;7.28;2.88;;;;;;;13.49;71.40;101275.69;5109202;28;20056;-68
2021/12/13 04:26:43;;;;;;;6.75;1.13;;;;;;;13.45;71.50;101280.09;5109410;28;20047;-68
2021/12/13 04:29:18;;;;;;;7.53;1.45;;;;;;;13.37;71.64;101278.19;5093912;28;20055;-68
2021/12/13 04:31:46;;;;;;;3.88;0.45;;;;;;;13.32;71.76;101278.16;5093212;28;20127;-67
2021/12/13 04:34:15;;;;;;;5.75;0.93;;;;;;;13.36;71.92;101279.06;5091980;28;20433;-68
2021/12/13 04:36:45;;;;;;;6.43;0.90;;;;;;;13.36;71.99;101277.31;5092548;28;20032;-68
2021/12/13 04:39:16;;;;;;;7.05;0.88;;;;;;;13.37;71.91;101275.53;5094132;28;20153;-68
2021/12/13 04:41:49;;;;;;;7.40;1.35;;;;;;;13.37;71.68;101276.44;5100265;28;20531;-68
2021/12/13 04:44:33;;;;;;;5.45;0.95;;;;;;;13.40;71.54;101280.88;5091371;28;20043;-68
2021/12/13 04:47:09;;;;;;;8.50;2.30;;;;;;;13.44;71.00;101278.28;5092833;28;20048;-68
2021/12/13 04:49:43;;;;;;;8.52;2.13;;;;;;;13.42;71.06;101280.03;5093195;28;20050;-68
2021/12/13 04:52:15;;;;;;;7.15;1.35;;;;;;;13.41;71.09;101275.59;5108556;28;20133;-68
2021/12/13 04:54:48;;;;;;;8.18;1.20;;;;;;;13.45;70.96;101282.72;5109499;28;20040;-68
2021/12/13 04:57:21;;;;;;;4.25;0.95;;;;;;;13.44;70.85;101288.00;5093602;28;20040;-68
2021/12/13 04:59:52;;;;;;;9.90;1.63;;;;;;;13.44;70.93;101295.97;5074933;28;20040;-69
2021/12/13 05:02:22;;;;;;;5.88;1.17;;;;;;;13.39;70.93;101302.97;5093039;28;20491;-68
2021/12/13 05:04:54;;;;;;;7.15;1.45;;;;;;;13.37;70.96;101302.06;5091760;28;20496;-69
2021/12/13 05:07:22;;;;;;;4.15;1.67;;;;;;;13.29;70.99;101299.31;5092192;28;20047;-68
2021/12/13 05:09:50;;;;;;;12.95;2.75;;;;;;;13.23;71.26;101291.28;5092252;28;20439;-69
2021/12/13 05:12:25;;;;;;;11.98;4.80;;;;;;;13.17;71.45;101291.19;5089910;28;20051;-70
2021/12/13 05:14:58;;;;;;;17.10;5.35;;;;;;;13.11;71.64;101296.38;5107721;28;20033;-68
2021/12/13 05:17:32;;;;;;;9.90;3.40;;;;;;;13.08;71.70;101294.56;5092981;28;20058;-68
2021/12/13 05:20:08;;;;;;;7.25;2.90;;;;;;;13.07;71.49;101295.44;5092731;28;20032;-68
2021/12/13 05:22:43;;;;;;;10.93;3.63;;;;;;;13.03;71.22;101304.22;5091987;28;20487;-68
2021/12/13 05:25:11;;;;;;;14.15;7.63;;;;;;;12.96;71.25;101296.16;5092572;28;20116;-68
2021/12/13 05:27:42;;;;;;;8.55;2.20;;;;;;;12.97;71.31;101304.13;5092181;28;20426;-67
2021/12/13 05:30:15;;;;;;;9.50;2.15;;;;;;;12.97;71.34;101300.59;5092046;28;20400;-68
2021/12/13 05:32:48;;;;;;;6.65;1.52;;;;;;;12.94;71.25;101298.78;5090849;28;20040;-68
2021/12/13 05:35:21;;;;;;;4.97;1.38;;;;;;;12.96;71.16;101305.00;5092603;28;20048;-68
2021/12/13 05:37:51;;;;;;;11.30;2.00;;;;;;;13.00;71.15;101300.63;5092431;28;20388;-69
2021/12/13 05:40:23;;;;;;;7.80;2.67;;;;;;;13.01;70.90;101299.75;5091630;28;20115;-68
2021/12/13 05:42:57;;;;;;;8.38;2.45;;;;;;;13.02;70.82;101306.84;5092373;28;20051;-68
2021/12/13 05:45:35;;;;;;;9.25;4.30;;;;;;;12.97;70.14;101303.25;5103283;28;20059;-69
2021/12/13 05:48:08;;;;;;;9.68;5.28;;;;;;;12.95;70.34;101305.88;5092907;28;20040;-68
2021/12/13 05:50:39;;;;;;;10.25;3.95;;;;;;;13.00;70.34;101305.91;5079205;28;20515;-68
2021/12/13 05:53:11;;;;;;;13.00;5.80;;;;;;;12.99;70.03;101307.72;5087809;28;20094;-68
2021/12/13 05:55:59;;;;;;;14.80;6.85;;;;;;;12.93;70.01;101306.72;5091074;28;20048;-68
2021/12/13 05:58:42;;;;;;;16.55;6.65;;;;;;;12.87;70.32;101307.50;5075527;28;20043;-69
2021/12/13 06:01:14;;;;;;;11.93;3.95;;;;;;;12.91;70.37;101303.16;5090816;28;20047;-69
2021/12/13 06:03:50;;;;;;;10.90;3.40;;;;;;;12.95;70.57;101300.56;5081668;28;20467;-69
2021/12/13 06:06:23;;;;;;;9.68;2.95;;;;;;;12.97;70.69;101304.13;5080584;28;20045;-69
2021/12/13 06:08:53;;;;;;;9.27;2.92;;;;;;;12.99;70.66;101299.75;5070601;28;20075;-69
2021/12/13 06:11:32;;;;;;;16.08;9.52;;;;;;;13.04;70.54;101300.72;5084770;28;20397;-69
2021/12/13 06:14:22;;;;;;;17.20;8.13;;;;;;;13.07;70.70;101307.78;5072412;28;20036;-68
2021/12/13 06:17:05;;;;;;;7.25;2.95;;;;;;;13.26;71.26;101312.50;5079887;28;20085;-69
2021/12/13 06:19:35;;;;;;;8.27;1.52;;;;;;;13.55;71.56;101311.13;5081451;28;20056;-69
2021/12/13 06:22:11;;;;;;;6.03;1.27;;;;;;;13.90;71.34;101308.91;5082345;28;20120;-68
2021/12/13 06:24:41;;;;;;;8.18;1.23;;;;;;;14.19;70.93;101306.50;5087123;28;20378;-68
2021/12/13 06:27:14;;;;;;;6.22;1.25;;;;;;;14.53;70.75;101309.50;5086444;28;20040;-69
2021/12/13 06:29:55;;;;;;;5.80;1.08;;;;;;;14.82;70.39;101300.00;5091414;28;20127;-69
2021/12/13 06:32:29;;;;;;;6.82;1.17;;;;;;;15.11;70.49;101309.03;5080424;28;20048;-69
2021/12/13 06:34:59;;;;;;;11.30;1.35;;;;;;;15.16;70.35;101306.44;5092068;28;20040;-69
2021/12/13 06:37:33;;;;;;;3.70;0.85;;;;;;;15.12;70.00;101313.47;5071607;28;20052;-69
2021/12/13 06:40:12;;;;;;;;;;;;;;;15.27;70.00;101315.34;5091325;28;20089;-69
2021/12/13 06:42:40;;;;;;;2.25;0.70;;;;;;;15.20;69.78;101318.84;5085786;28;19920;-69
2021/12/13 06:45:23;;;;;;;5.13;0.80;;;;;;;15.28;69.41;101330.44;5073807;28;20089;-69
2021/12/13 06:47:53;;;;;;;8.97;1.23;;;;;;;15.52;69.56;101324.31;5083698;28;20047;-69
2021/12/13 06:50:24;;;;;;;7.40;1.17;;;;;;;15.82;69.32;101326.22;5081537;28;20036;-69
2021/12/13 06:52:52;;;;;;;4.72;1.23;;;;;;;16.10;68.96;101330.75;5086875;28;20036;-69
2021/12/13 06:55:21;;;;;;;7.68;1.08;;;;;;;16.37;68.23;101323.69;5090129;28;20036;-69
2021/12/13 06:57:51;;;;;;;4.55;0.80;;;;;;;16.63;67.92;101324.63;5088096;28;20036;-70
2021/12/13 07:00:30;;;;;;;6.97;1.23;;;;;;;16.88;67.25;101320.16;5073582;28;20039;-70
2021/12/13 07:03:02;;;;;;;5.05;0.80;;;;;;;17.07;66.49;101314.78;5088143;28;20051;-69
2021/12/13 07:05:33;;;;;;;4.18;0.70;;;;;;;17.24;65.35;101311.19;5075458;28;20040;-69
2021/12/13 07:08:03;;;;;;;5.35;1.27;;;;;;;17.41;64.63;101312.03;5082742;28;20500;-69
2021/12/13 07:10:34;;;;;;;3.63;0.63;;;;;;;17.54;63.48;101313.75;5077651;28;20473;-70
2021/12/13 07:13:06;;;;;;;8.55;1.60;;;;;;;17.70;63.01;101312.84;5087692;28;20047;-70
2021/12/13 07:15:44;;;;;;;5.47;0.80;;;;;;;17.86;61.59;101324.31;5089425;28;20036;-69
2021/12/13 07:18:17;;;;;;;7.72;1.02;;;;;;;18.03;61.39;101325.13;5080241;28;20035;-69
2021/12/13 07:20:48;;;;;;;8.95;1.10;;;;;;;18.22;61.48;101318.78;5088898;28;20044;-69
2021/12/13 07:23:17;;;;;;;4.97;0.82;;;;;;;18.41;60.80;101316.84;5089204;28;20063;-69
2021/12/13 07:25:46;;;;;;;5.15;1.05;;;;;;;18.45;59.43;101323.03;5090034;28;20123;-69
2021/12/13 07:28:29;;;;;;;5.72;0.98;;;;;;;18.50;58.84;101322.13;5089684;28;20044;-69
2021/12/13 07:30:58;;;;;;;6.72;1.30;;;;;;;18.55;58.21;101322.09;5088649;28;20079;-70
2021/12/13 07:33:37;;;;;;;4.00;1.05;;;;;;;18.65;57.86;101327.38;5088440;28;20101;-69
2021/12/13 07:36:17;;;;;;;5.65;1.08;;;;;;;18.77;57.50;101321.06;5087985;28;20035;-70
2021/12/13 07:38:51;;;;;;;5.03;1.33;;;;;;;18.96;57.98;101329.78;5087622;28;20047;-69
2021/12/13 07:41:20;;;;;;;7.22;2.63;;;;;;;19.15;58.39;101333.16;5088488;28;20115;-69
2021/12/13 07:43:47;;;;;;;7.03;1.58;;;;;;;19.31;57.86;101345.47;5089463;28;20495;-68
2021/12/13 07:46:29;;;;;;;5.65;1.20;;;;;;;19.47;56.12;101344.44;5090873;28;20078;-69
2021/12/13 07:49:00;;;;;;;6.00;1.02;;;;;;;19.69;55.15;101348.59;5087379;28;20040;-69
2021/12/13 07:51:33;;;;;;;9.40;1.60;;;;;;;19.85;53.64;101350.22;5090345;28;20044;-69
2021/12/13 07:54:06;;;;;;;7.65;1.17;;;;;;;19.97;53.59;101354.50;5088236;28;20527;-69
2021/12/13 07:56:48;;;;;;;5.53;1.00;;;;;;;20.14;53.33;101356.97;5088271;28;20032;-69
2021/12/13 07:59:24;;;;;;;6.65;1.35;;;;;;;20.39;54.16;101349.47;5090868;28;20492;-69
2021/12/13 08:01:56;;;;;;;4.15;0.85;;;;;;;20.57;54.20;101346.50;5086620;28;20048;-70
2021/12/13 08:04:26;;;;;;;7.78;1.05;;;;;;;20.65;53.04;101344.59;5071668;28;20051;-69
2021/12/13 08:06:56;;;;;;;6.07;1.40;;;;;;;20.78;52.64;101345.28;5084733;28;20048;-69
2021/12/13 08:09:26;;;;;;;10.10;3.10;;;;;;;20.91;51.66;101344.16;5090151;28;20036;-69
2021/12/13 08:11:58;;;;;;;10.02;3.38;;;;;;;21.04;51.85;101343.91;5089750;28;20087;-70
2021/12/13 08:14:28;;;;;;;9.68;4.53;;;;;;;21.04;51.38;101351.06;5088988;28;20052;-69
2021/12/13 08:17:08;;;;;;;7.82;2.00;;;;;;;21.03;50.65;101347.50;5088191;28;20388;-69
2021/12/13 08:19:36;;;;;;;9.60;2.50;;;;;;;21.11;50.33;101349.16;5089124;28;20052;-69
2021/12/13 08:22:11;;;;;;;6.32;2.00;;;;;;;21.19;49.87;101345.47;5089208;28;20036;-70
2021/12/13 08:24:43;;;;;;;6.10;1.23;;;;;;;21.35;49.08;101343.34;5088410;28;20471;-70
2021/12/13 08:27:14;;;;;;;9.13;1.40;;;;;;;21.42;48.65;101342.31;5089711;28;20056;-70
2021/12/13 08:29:43;;;;;;;7.13;1.70;;;;;;;21.56;48.54;101342.03;5083827;28;20062;-70
2021/12/13 08:32:17;;;;;;;5.72;1.65;;;;;;;21.70;47.68;101332.78;5087711;28;20044;-71
2021/12/13 08:34:46;;;;;;;;;;;;;;;21.67;48.40;101337.31;5103305;28;20067;-69
2021/12/13 08:37:19;;;;;;;8.80;3.75;;;;;;;21.48;48.49;101340.38;5091473;28;20315;-69
2021/12/13 08:39:50;;;;;;;10.30;2.30;;;;;;;21.36;47.92;101335.25;5084305;28;20032;-69
2021/12/13 08:42:22;;;;;;;12.93;4.75;;;;;;;21.60;48.21;101343.75;5089511;28;20376;-69
2021/12/13 08:44:59;;;;;;;9.98;4.18;;;;;;;21.73;47.53;101340.75;5086868;28;20089;-70
2021/12/13 08:47:35;;;;;;;8.43;3.35;;;;;;;21.65;47.03;101339.19;5098995;27;20041;-70
2021/12/13 08:50:08;;;;;;;9.30;3.97;;;;;;;21.32;46.41;101336.25;5096004;28;20094;-71
2021/12/13 08:52:39;;;;;;;8.30;3.57;;;;;;;20.97;46.22;101341.34;5086495;28;20056;-71
2021/12/13 08:55:19;;;;;;;11.98;5.75;;;;;;;20.59;46.09;101342.91;5089805;28;20112;-71
2021/12/13 08:57:51;;;;;;;8.93;3.35;;;;;;;20.28;46.55;101337.06;5081128;28;20076;-70
2021/12/13 09:00:35;;;;;;;10.25;3.80;;;;;;;19.99;46.83;101336.63;5093756;28;20066;-70
2021/12/13 09:03:17;;;;;;;10.50;3.60;;;;;;;19.83;46.78;101340.41;5088935;28;20119;-71
2021/12/13 09:05:57;;;;;;;10.38;3.38;;;;;;;19.64;47.04;101339.75;5085823;28;20051;-70
2021/12/13 09:08:29;;;;;;;10.02;4.35;;;;;;;19.67;47.58;101336.16;5092227;28;20097;-69
2021/12/13 09:11:01;;;;;;;8.07;2.08;;;;;;;20.02;47.33;101339.25;5092710;28;20035;-70
2021/12/13 09:13:39;;;;;;;9.07;4.15;;;;;;;19.98;46.32;101337.53;5090703;28;20067;-70
2021/12/13 09:16:09;;;;;;;7.63;2.70;;;;;;;19.84;46.61;101336.81;5109245;28;20043;-70
2021/12/13 09:18:40;;;;;;;8.57;2.47;;;;;;;19.83;47.20;101332.34;5093997;28;20048;-70
2021/12/13 09:21:09;;;;;;;7.97;2.67;;;;;;;19.79;47.40;101339.56;5085764;28;20056;-68
2021/12/13 09:23:45;;;;;;;6.50;1.80;;;;;;;19.74;47.06;101333.38;5091483;28;20044;-69
2021/12/13 09:26:18;;;;;;;6.70;2.33;;;;;;;19.83;47.17;101324.31;5093577;28;20384;-68
2021/12/13 09:28:52;;;;;;;5.03;1.40;;;;;;;19.82;47.23;101333.28;5092112;28;20040;-68
2021/12/13 09:31:24;;;;;;;7.38;2.42;;;;;;;19.82;47.21;101330.63;5090021;28;20043;-69
2021/12/13 09:33:55;;;;;;;6.38;1.83;;;;;;;19.75;47.43;101326.25;5109236;28;20123;-69
2021/12/13 09:36:26;;;;;;;8.77;2.38;;;;;;;19.93;47.93;101328.66;5093411;28;20109;-69
2021/12/13 09:38:58;;;;;;;6.82;1.70;;;;;;;19.86;48.04;101324.28;5108757;28;20403;-68
2021/12/13 09:41:36;;;;;;;7.45;2.20;;;;;;;19.68;47.86;101319.19;5107659;28;20032;-70
2021/12/13 09:44:21;;;;;;;8.50;2.13;;;;;;;19.45;48.19;101323.00;5083571;28;20028;-70
2021/12/13 09:46:52;;;;;;;7.38;1.80;;;;;;;19.33;48.46;101315.09;5091450;28;20119;-71
2021/12/13 09:49:27;;;;;;;6.80;1.88;;;;;;;19.42;48.46;101316.81;5072728;27;20051;-70
2021/12/13 09:51:57;;;;;;;3.97;1.08;;;;;;;19.32;48.87;101313.31;5089763;28;20495;-69
2021/12/13 09:54:29;;;;;;;5.85;1.20;;;;;;;19.16;48.67;101316.19;5090678;28;20101;-68
2021/12/13 09:57:01;;;;;;;5.03;1.05;;;;;;;18.97;48.66;101311.00;5092513;27;20090;-68
2021/12/13 09:59:32;;;;;;;6.43;1.27;;;;;;;18.76;48.59;101303.22;5092313;28;20044;-68
2021/12/13 10:02:01;;;;;;;6.53;1.50;;;;;;;18.67;49.28;101298.84;5074189;28;20511;-68
2021/12/13 10:04:34;;;;;;;4.72;1.30;;;;;;;18.56;49.62;101299.84;5089840;28;20048;-68
2021/12/13 10:07:06;;;;;;;4.82;1.35;;;;;;;18.46;49.89;101303.44;5091260;28;20036;-68
2021/12/13 10:09:38;;;;;;;6.60;1.20;;;;;;;18.39;50.22;101297.25;5091337;28;20381;-68
2021/12/13 10:12:10;;;;;;;4.15;1.08;;;;;;;18.31;50.24;101291.94;5091087;28;20052;-68
2021/12/13 10:14:43;;;;;;;5.65;1.33;;;;;;;18.22;50.46;101285.81;5081342;28;20052;-69
2021/12/13 10:17:15;;;;;;;2.25;0.70;;;;;;;18.13;50.47;101289.41;5107845;28;20527;-69
2021/12/13 10:19:50;;;;;;;7.60;1.02;;;;;;;18.07;50.61;101288.56;5108441;27;20520;-69
2021/12/13 10:22:23;;;;;;;4.47;1.00;;;;;;;18.01;51.09;101280.59;5090773;28;20396;-69
2021/12/13 10:24:55;;;;;;;8.30;0.80;;;;;;;17.93;51.62;101277.97;5070150;28;20040;-70
2021/12/13 10:27:24;;;;;;;5.55;0.80;;;;;;;17.90;51.90;101278.00;5077152;28;20040;-69
2021/12/13 10:29:58;;;;;;;5.88;0.90;;;;;;;17.90;52.13;101276.22;5085158;28;20094;-68
2021/12/13 10:32:29;;;;;;;3.75;1.00;;;;;;;17.92;52.38;101278.88;5076773;28;20049;-68
2021/12/13 10:35:06;;;;;;;6.28;1.20;;;;;;;17.90;52.51;101281.56;5089821;28;20369;-68
2021/12/13 10:37:36;;;;;;;3.47;0.80;;;;;;;17.88;52.84;101277.13;5090501;28;20126;-68
2021/12/13 10:40:10;;;;;;;5.55;0.90;;;;;;;17.83;52.90;101266.47;5088490;28;20377;-68
2021/12/13 10:42:42;;;;;;;3.13;0.93;;;;;;;17.90;53.02;101268.22;5075379;28;20124;-67
2021/12/13 10:45:12;;;;;;;3.45;1.10;;;;;;;18.04;52.98;101264.56;5072734;28;20056;-67
2021/12/13 10:47:44;;;;;;;4.60;1.15;;;;;;;18.10;53.12;101257.41;5074176;28;20053;-68
2021/12/13 10:50:20;;;;;;;5.15;1.10;;;;;;;18.11;53.32;101258.28;5074005;28;20191;-68
2021/12/13 10:52:51;;;;;;;5.10;1.00;;;;;;;18.06;53.80;101254.72;5070388;28;20040;-68
2021/12/13 10:55:22;;;;;;;5.70;1.23;;;;;;;18.03;53.97;101253.00;5089800;27;20654;-67
2021/12/13 10:57:53;;;;;;;4.60;0.90;;;;;;;18.04;53.96;101257.44;5085645;28;20052;-69
2021/12/13 11:00:24;;;;;;;3.25;0.93;;;;;;;18.07;54.29;101254.72;5089320;28;20038;-69
2021/12/13 11:02:55;;;;;;;4.85;1.13;;;;;;;18.09;54.58;101257.41;5088147;28;20461;-68
2021/12/13 11:05:28;;;;;;;4.63;1.15;;;;;;;18.18;54.60;101250.19;5088952;28;20040;-68
2021/12/13 11:07:58;;;;;;;4.33;1.60;;;;;;;18.24;54.76;101239.47;5088453;28;20032;-68
2021/12/13 11:10:31;;;;;;;2.95;0.90;;;;;;;18.30;54.82;101233.19;5087434;28;20036;-68
2021/12/13 11:13:01;;;;;;;7.30;1.30;;;;;;;18.32;54.70;101242.94;5052373;28;20047;-68
2021/12/13 11:15:32;;;;;;;5.13;0.95;;;;;;;18.32;54.79;101236.72;5069418;28;20135;-68
2021/12/13 11:18:02;;;;;;;4.88;1.27;;;;;;;18.29;55.10;101226.06;5086183;28;20040;-68
2021/12/13 11:20:36;;;;;;;5.00;1.35;;;;;;;18.30;55.50;101223.38;5087902;28;20051;-68
2021/12/13 11:23:04;;;;;;;6.07;0.90;;;;;;;18.31;55.71;101219.78;5088578;28;20036;-68
2021/12/13 11:25:36;;;;;;;5.15;1.13;;;;;;;18.35;55.85;101222.44;5085581;28;20094;-68
2021/12/13 11:28:05;;;;;;;8.80;1.63;;;;;;;18.39;55.97;101210.81;5087385;28;20109;-68
2021/12/13 11:30:36;;;;;;;4.55;2.20;;;;;;;18.41;55.98;101215.25;5089336;28;20044;-68
2021/12/13 11:33:47;;;;;;;5.68;1.30;;;;;;;18.47;55.53;101211.63;5080112;28;20044;-68
2021/12/13 11:36:40;;;;;;;3.03;1.38;;;;;;;18.46;55.57;101223.22;5087934;28;20051;-68
2021/12/13 11:39:30;;;;;;;6.93;1.42;;;;;;;18.35;55.77;101214.41;5085121;28;20064;-68
2021/12/13 11:42:45;;;;;;;3.22;1.02;;;;;;;18.26;55.95;101212.69;5075470;28;20040;-68
2021/12/13 11:45:42;;;;;;;4.82;1.35;;;;;;;18.22;55.87;101209.19;5089816;28;20063;-67
2021/12/13 11:48:28;;;;;;;3.78;1.10;;;;;;;18.22;56.13;101208.28;5089213;28;20062;-68
2021/12/13 11:51:39;;;;;;;4.15;1.10;;;;;;;18.22;56.57;101203.84;5087853;28;20377;-68
2021/12/13 11:54:54;;;;;;;4.18;1.10;;;;;;;18.21;56.82;101198.50;5100215;28;20036;-68
2021/12/13 11:57:53;;;;;;;5.57;1.35;;;;;;;18.25;57.14;101195.78;5068912;28;20542;-68
2021/12/13 12:00:37;;;;;;;5.35;3.15;;;;;;;18.26;57.35;101194.88;5081178;28;20090;-68
2021/12/13 12:03:44;;;;;;;6.40;1.90;;;;;;;18.22;57.81;101194.94;5086968;28;20036;-68